Latest Weather Observations for Tocal

IDN60801

Issued at 6:05 pm EST Saturday 30 August 2014 (issued every 30 minutes, with the page automatically refreshed every 10 minutes)

About weather observations | Map of weather stations | Latest weather observations for NSW | Other Formats
Station Details ID: 061250 Name: TOCAL AWS Lat: -32.63 Lon: 151.59 Height: 30.0 m
Data from the previous 72 hours. | See also: Recent months at Tocal
Date/Time
EST
Temp
°C
App
Temp
°C
Dew
Point
Rel
Hum
%
Delta-T
°C
Wind Press
QNH
hPa
Press
MSL
hPa
Rain
since 9 am
mm
Dir
 
Spd
km/h
Gust
km/h
Spd
kts
Gust
kts
30/06:01pm 15.8 13.7 11.3 74 2.4 WSW 13 19 7 10 - - 0.0
30/06:00pm 15.8 13.7 11.3 74 2.4 WSW 13 15 7 8 - - -
30/05:31pm 16.0 14.4 11.6 75 2.4 WSW 11 15 6 8 - - 0.0
30/05:01pm 16.2 14.2 11.6 74 2.5 SW 13 20 7 11 - - 0.0
30/04:31pm 16.4 14.4 11.6 73 2.6 SW 13 22 7 12 - - 0.0
30/04:01pm 16.7 14.3 11.5 71 2.8 SW 15 22 8 12 - - 0.0
30/03:31pm 17.1 14.3 11.2 68 3.2 SW 17 28 9 15 - - 0.0
30/03:01pm 17.1 14.4 11.6 70 3.0 SW 17 24 9 13 - - 0.0
30/03:00pm 16.9 14.5 11.4 70 3.0 WSW 15 - 8 - - - 0.0
30/02:31pm 16.4 13.0 11.2 71 2.8 SW 20 30 11 16 - - 0.0
30/02:01pm 17.3 14.1 11.2 67 3.3 WSW 19 30 10 16 - - 0.0
30/01:31pm 16.9 13.7 11.2 69 3.1 SW 19 26 10 14 - - 0.0
30/01:01pm 16.8 14.3 11.0 68 3.1 WSW 15 24 8 13 - - 0.0
30/12:31pm 16.4 13.4 10.8 69 3.0 WSW 17 22 9 12 - - 0.0
30/12:01pm 15.7 13.1 10.8 72 2.6 WSW 15 26 8 14 - - 0.0
30/12:00pm 15.5 13.3 10.8 73 2.5 WSW 13 - 7 - - - -
30/11:31am 15.3 11.9 10.6 73 2.5 W 19 30 10 16 - - 0.0
30/11:01am 15.2 12.5 10.5 73 2.5 WSW 15 22 8 12 - - 0.0
30/10:31am 14.9 11.3 9.9 72 2.6 W 19 30 10 16 - - 0.0
30/10:01am 14.9 11.6 9.7 71 2.7 W 17 26 9 14 - - 0.0
30/09:31am 14.1 11.1 9.4 73 2.4 WSW 15 26 8 14 - - 0.0
30/09:01am 14.0 11.3 8.9 71 2.6 WSW 13 19 7 10 - - 0.0
30/09:00am 14.0 11.3 8.9 71 2.6 WSW 13 - 7 - - - 0.4
30/08:31am 13.6 10.4 8.6 72 2.5 WSW 15 26 8 14 - - 0.4
30/08:01am 13.3 10.1 8.3 72 2.5 WSW 15 22 8 12 - - 0.4
30/07:31am 13.1 10.2 8.0 71 2.5 W 13 20 7 11 - - 0.4
30/07:01am 13.0 10.0 7.9 71 2.5 WSW 13 19 7 10 - - 0.4
30/06:31am 13.0 10.4 7.7 70 2.6 W 11 19 6 10 - - 0.4
30/06:01am 12.9 9.8 7.4 69 2.7 W 13 20 7 11 - - 0.4
30/06:00am 12.9 9.8 7.4 69 2.7 W 13 17 7 9 - - -
30/05:31am 13.0 9.8 7.0 67 2.9 W 13 19 7 10 - - 0.4
30/05:01am 13.0 9.8 7.0 67 2.9 W 13 19 7 10 - - 0.4
30/04:31am 13.0 9.8 7.0 67 2.9 W 13 19 7 10 - - 0.4
30/04:01am 13.0 9.7 6.5 64 3.1 W 13 20 7 11 - - 0.4
30/03:31am 12.9 9.6 6.4 64 3.1 W 13 19 7 10 - - 0.4
30/03:01am 12.9 9.7 6.9 67 2.9 W 13 17 7 9 - - 0.4
30/03:00am 13.0 9.8 6.8 66 3.0 W 13 - 7 - - - 0.4
30/02:31am 13.1 9.8 6.6 64 3.1 W 13 19 7 10 - - 0.4
30/02:01am 13.0 9.8 6.8 66 3.0 WSW 13 19 7 10 - - 0.4
30/01:31am 13.0 9.8 6.8 66 3.0 WSW 13 22 7 12 - - 0.4
30/01:01am 12.9 9.8 7.1 68 2.8 W 13 19 7 10 - - 0.4
30/12:31am 12.9 9.8 7.1 68 2.8 W 13 19 7 10 - - 0.4
30/12:01am 13.1 9.9 6.9 66 3.0 W 13 24 7 13 - - 0.4
30/12:00am 13.1 10.0 7.1 67 2.9 W 13 - 7 - - - -
 
Date/Time
EST
Temp
°C
App
Temp
°C
Dew
Point
Rel
Hum
%
Delta-T
°C
Wind Press
QNH
hPa
Press
MSL
hPa
Rain
since 9 am
mm
Dir
 
Spd
km/h
Gust
km/h
Spd
kts
Gust
kts
29/11:31pm 13.1 9.9 6.9 66 3.0 WSW 13 19 7 10 - - 0.4
29/11:01pm 13.1 9.5 6.9 66 3.0 W 15 19 8 10 - - 0.4
29/10:31pm 13.5 9.4 6.4 62 3.4 WSW 17 26 9 14 - - 0.4
29/10:01pm 13.0 9.7 6.3 64 3.2 WSW 13 19 7 10 - - 0.4
29/09:31pm 12.5 9.7 6.9 68 2.7 WSW 11 17 6 9 - - 0.4
29/09:01pm 13.0 9.9 7.2 68 2.8 WSW 13 20 7 11 - - 0.2
29/09:00pm 12.9 9.8 7.4 69 2.7 WSW 13 - 7 - - - 0.2
29/08:31pm 13.3 11.0 7.4 67 2.9 WSW 9 11 5 6 - - 0.2
29/08:01pm 13.3 10.3 7.6 68 2.8 WSW 13 20 7 11 - - 0.2
29/07:31pm 13.0 10.9 8.2 72 2.4 WSW 9 13 5 7 - - 0.2
29/07:01pm 13.3 11.6 8.5 72 2.4 WSW 7 15 4 8 - - 0.2
29/06:31pm 13.9 12.2 8.5 70 2.7 WSW 7 9 4 5 - - 0.2
29/06:01pm 14.5 12.7 7.9 64 3.3 SW 7 11 4 6 - - 0.2
29/06:00pm 14.4 12.7 8.2 66 3.1 SW 7 9 4 5 - - -
29/05:31pm 14.7 12.2 8.3 65 3.2 SSW 11 17 6 9 - - 0.2
29/05:01pm 15.1 10.6 8.6 65 3.3 SW 22 32 12 17 - - 0.2
29/04:31pm 16.2 13.4 8.6 60 3.9 SW 13 19 7 10 - - 0.2
29/04:01pm 16.1 12.4 8.0 58 4.1 SSW 17 28 9 15 - - 0.2
29/03:31pm 15.9 11.3 8.0 59 4.0 SSW 22 37 12 20 - - 0.2
29/03:01pm 15.6 13.4 10.7 72 2.6 SSW 13 17 7 9 - - 0.2
29/03:00pm 15.7 13.4 10.4 71 2.8 SW 13 - 7 - - - 0.2
29/02:31pm 15.5 11.1 9.1 65 3.3 SSW 22 30 12 16 - - 0.2
29/02:01pm 16.9 14.3 9.4 61 3.9 SW 13 20 7 11 - - 0.2
29/01:31pm 16.3 12.6 10.0 66 3.3 SW 20 32 11 17 - - 0.2
29/01:01pm 16.7 13.3 7.5 54 4.6 SSW 15 26 8 14 - - 0.2
29/12:31pm 17.3 13.3 8.1 54 4.7 WSW 19 30 10 16 - - 0.2
29/12:01pm 16.4 12.9 8.6 60 4.0 SW 17 26 9 14 - - 0.2
29/12:00pm 16.6 12.8 9.1 61 3.9 WSW 19 - 10 - - - -
29/11:31am 14.8 11.1 9.4 70 2.8 SW 19 28 10 15 - - 0.2
29/11:01am 16.3 12.7 10.0 66 3.3 SW 19 26 10 14 - - 0.2
29/10:31am 13.9 10.3 10.0 77 2.0 SW 19 32 10 17 - - 0.2
29/10:01am 14.1 11.4 9.0 71 2.6 W 13 19 7 10 - - 0.0
29/09:31am 13.8 10.2 8.4 70 2.7 W 17 26 9 14 - - 0.0
29/09:01am 13.6 10.4 8.6 72 2.5 W 15 26 8 14 - - 0.0
29/09:00am 13.2 10.0 8.4 72 2.4 W 15 - 8 - - - 4.0
29/08:31am 12.1 9.2 8.0 76 2.0 W 13 22 7 12 - - 4.2
29/08:01am 12.0 9.5 8.1 77 1.9 W 11 19 6 10 - - 4.2
29/07:31am 11.2 7.9 8.1 81 1.5 W 15 20 8 11 - - 4.2
29/07:01am 11.0 7.6 7.7 80 1.6 SW 15 22 8 12 - - 4.2
29/06:31am 10.2 7.7 8.4 89 0.9 W 11 17 6 9 - - 4.2
29/06:01am 9.0 7.3 7.5 90 0.7 N 6 9 3 5 - - 4.0
29/06:00am 8.9 7.2 7.6 91 0.6 N 6 - 3 - - - -
29/05:31am 9.2 7.3 7.7 90 0.7 NE 7 7 4 4 - - 4.0
29/05:01am 9.7 8.2 8.5 92 0.6 NNW 6 7 3 4 - - 4.0
29/04:31am 10.5 10.0 8.0 84 1.2 CALM 0 0 0 0 - - 4.0
29/04:01am 9.8 7.6 7.9 88 0.9 ENE 9 11 5 6 - - 4.0
29/03:31am 9.4 7.7 7.5 88 0.9 NE 6 9 3 5 - - 4.0
29/03:01am 9.8 8.1 7.5 85 1.1 ENE 6 7 3 4 - - 4.0
29/03:00am 9.6 7.9 7.5 87 1.0 ENE 6 - 3 - - - 4.0
29/02:31am 9.7 8.7 7.4 85 1.1 E 2 7 1 4 - - 4.0
29/02:01am 10.1 9.1 7.4 83 1.3 NE 2 7 1 4 - - 4.0
29/01:31am 9.8 7.9 7.5 85 1.1 ENE 7 7 4 4 - - 4.0
29/01:01am 10.1 9.5 7.6 84 1.2 CALM 0 0 0 0 - - 4.0
29/12:31am 10.6 8.9 7.7 82 1.4 ENE 6 7 3 4 - - 4.0
29/12:01am 10.5 8.6 7.6 82 1.4 NE 7 7 4 4 - - 4.0
29/12:00am 10.5 8.6 7.6 82 1.4 NE 7 - 4 - - - -
 
Date/Time
EST
Temp
°C
App
Temp
°C
Dew
Point
Rel
Hum
%
Delta-T
°C
Wind Press
QNH
hPa
Press
MSL
hPa
Rain
since 9 am
mm
Dir
 
Spd
km/h
Gust
km/h
Spd
kts
Gust
kts
28/11:31pm 11.0 10.1 7.9 81 1.5 WNW 2 6 1 3 - - 4.0
28/11:01pm 10.1 9.5 7.6 84 1.2 CALM 0 0 0 0 - - 4.0
28/10:31pm 10.3 8.6 7.6 83 1.3 N 6 7 3 4 - - 4.0
28/10:01pm 10.3 9.5 8.0 86 1.1 N 2 6 1 3 - - 4.0
28/09:31pm 11.6 11.1 7.7 77 1.9 CALM 0 0 0 0 - - 4.0
28/09:01pm 11.6 10.3 7.5 76 2.0 W 4 7 2 4 - - 4.0
28/09:00pm 11.1 10.2 7.8 80 1.6 W 2 - 1 - - - 4.0
28/08:31pm 10.8 9.6 8.1 83 1.3 W 4 7 2 4 - - 4.0
28/08:01pm 13.0 12.1 7.7 70 2.6 W 2 7 1 4 - - 4.0
28/07:31pm 12.9 11.3 8.0 72 2.4 WSW 6 9 3 5 - - 4.0
28/07:01pm 13.8 12.0 8.0 68 2.9 SW 7 11 4 6 - - 4.0
28/06:31pm 14.2 12.1 8.4 68 2.9 WSW 9 11 5 6 - - 4.0
28/06:01pm 14.7 11.8 8.3 65 3.2 SSW 13 17 7 9 - - 4.0
28/06:00pm 14.7 11.8 8.3 65 3.2 SSW 13 - 7 - - - -
28/05:31pm 14.8 12.4 8.5 66 3.2 SSW 11 19 6 10 - - 4.0
28/05:01pm 14.5 14.4 10.9 79 1.9 ESE 2 9 1 5 - - 4.0
28/04:31pm 14.0 11.0 10.8 81 1.7 S 17 30 9 16 - - 4.0
28/04:01pm 16.9 14.2 9.0 59 4.1 S 13 22 7 12 - - 3.6
28/03:31pm 17.6 14.9 8.9 56 4.5 S 13 24 7 13 - - 3.6
28/03:01pm 17.2 13.7 8.9 58 4.3 SSE 17 30 9 16 - - 3.6
28/03:00pm 17.4 14.7 8.9 57 4.4 SSE 13 - 7 - - - 4.0
28/02:31pm 18.1 14.6 8.9 55 4.8 S 17 28 9 15 - - 3.6
28/02:01pm 17.2 16.2 12.3 73 2.7 SSW 9 17 5 9 - - 3.6
28/01:31pm 13.8 11.6 10.8 82 1.6 SSE 13 30 7 16 - - 3.6
28/01:01pm 16.9 13.2 10.3 65 3.5 SSE 20 37 11 20 - - 2.6
28/12:31pm 18.6 15.6 10.6 59 4.3 SSE 17 30 9 16 - - 2.6
28/12:01pm 17.0 15.4 10.2 64 3.6 S 9 19 5 10 - - 2.6
28/12:00pm 17.1 15.7 11.0 67 3.3 SSW 9 - 5 - - - -
28/11:31am 15.2 14.4 13.0 87 1.2 SSW 9 15 5 8 - - 2.6
28/11:01am 14.4 13.9 12.8 90 0.9 SSE 7 13 4 7 - - 2.6
28/10:31am 15.6 15.2 13.1 85 1.4 SSW 7 9 4 5 - - 0.8
28/10:01am 15.5 14.5 12.4 82 1.7 SW 9 15 5 8 - - 0.0
28/09:31am 15.4 14.5 12.5 83 1.6 SW 9 15 5 8 - - 0.0
28/09:01am 14.3 13.1 12.7 90 0.9 SW 11 15 6 8 - - 0.0
28/09:00am 14.3 13.4 12.5 89 1.0 SW 9 - 5 - - - 15.0
28/08:31am 13.2 12.3 12.6 96 0.3 SW 9 15 5 8 - - 14.8
28/08:01am 12.3 11.2 12.1 99 0.1 WSW 9 11 5 6 - - 14.8
28/07:31am 12.0 11.4 11.8 99 0.1 SW 6 9 3 5 - - 13.4
28/07:01am 11.7 10.8 11.5 99 0.1 WSW 7 9 4 5 - - 11.6
28/06:31am 11.7 10.8 11.3 97 0.2 SW 7 9 4 5 - - 10.2
28/06:01am 11.6 10.8 11.2 97 0.2 W 6 7 3 4 - - 8.6
28/06:00am 11.6 10.8 11.2 97 0.2 W 6 - 3 - - - -
28/05:31am 11.6 11.2 11.2 97 0.2 W 4 9 2 5 - - 8.6
28/05:01am 11.8 11.4 11.2 96 0.3 WSW 4 7 2 4 - - 8.2
28/04:31am 11.9 11.0 11.3 96 0.3 WSW 7 9 4 5 - - 8.2
28/04:01am 11.9 12.0 11.5 97 0.2 SSW 2 7 1 4 - - 8.0
28/03:31am 12.0 10.8 11.6 97 0.2 SW 9 13 5 7 - - 8.0
28/03:01am 11.8 11.2 11.6 99 0.1 WSW 6 9 3 5 - - 7.8
28/03:00am 11.8 11.1 11.4 97 0.2 W 6 - 3 - - - 8.0
28/02:31am 11.8 10.2 11.4 97 0.2 WSW 11 15 6 8 - - 7.6
28/02:01am 11.9 9.9 11.5 97 0.2 SW 13 19 7 10 - - 6.8
28/01:31am 12.2 11.4 11.8 97 0.2 SW 7 13 4 7 - - 6.8
28/01:01am 12.2 10.6 11.6 96 0.3 SSW 11 19 6 10 - - 6.6
28/12:31am 12.3 10.4 11.7 96 0.3 SW 13 19 7 10 - - 5.4
28/12:01am 12.4 10.1 11.6 95 0.4 SW 15 22 8 12 - - 4.4
28/12:00am 12.5 10.2 11.6 94 0.5 SW 15 - 8 - - - -
 
Date/Time
EST
Temp
°C
App
Temp
°C
Dew
Point
Rel
Hum
%
Delta-T
°C
Wind Press
QNH
hPa
Press
MSL
hPa
Rain
since 9 am
mm
Dir
 
Spd
km/h
Gust
km/h
Spd
kts
Gust
kts
27/11:31pm 13.2 11.9 11.1 87 1.1 SW 9 15 5 8 - - 3.2
27/11:01pm 13.1 11.8 11.4 89 0.9 SW 9 11 5 6 - - 3.2
27/10:31pm 13.4 11.3 11.1 86 1.2 SW 13 15 7 8 - - 3.2
27/10:01pm 13.5 11.9 10.2 80 1.7 SW 9 11 5 6 - - 3.2
27/09:31pm 13.7 11.9 9.6 76 2.1 SW 9 13 5 7 - - 3.2
27/09:01pm 13.9 11.2 9.0 72 2.5 SSW 13 19 7 10 - - 3.2
27/09:00pm 14.0 11.2 8.6 70 2.7 SW 13 - 7 - - - 3.0
27/08:31pm 13.6 11.3 10.3 80 1.7 SW 13 17 7 9 - - 3.2
27/08:01pm 13.6 10.6 10.5 81 1.6 SSW 17 30 9 16 - - 3.2
27/07:31pm 13.8 12.0 12.1 89 0.9 S 13 20 7 11 - - 3.2
27/07:01pm 13.8 12.2 11.7 87 1.1 SSW 11 17 6 9 - - 2.8
27/06:31pm 13.5 11.7 12.0 91 0.8 SSW 13 19 7 10 - - 2.8

Other Formats:

Comma delimited format used in spreadsheet applications
http://www.bom.gov.au/fwo/IDN60801/IDN60801.94775.axf

JavaScript Object Notation format (JSON) in row-major order
http://www.bom.gov.au/fwo/IDN60801/IDN60801.94775.json